createdAt,value
2022-12-29T00:01:03.318Z,7.52
2022-12-29T00:03:31.253Z,7.42
2022-12-29T00:05:59.533Z,7.48
2022-12-29T00:08:41.125Z,7.37
2022-12-29T00:11:10.072Z,7.51
2022-12-29T00:13:56.214Z,7.37
2022-12-29T00:16:25.807Z,7.38
2022-12-29T00:18:54.511Z,7.48
2022-12-29T00:21:42.096Z,7.38
2022-12-29T00:24:31.815Z,7.56
2022-12-29T00:27:31.945Z,7.62
2022-12-29T00:30:18.531Z,7.63
2022-12-29T00:33:05.195Z,7.63
2022-12-29T00:35:40.520Z,7.68
2022-12-29T00:38:28.349Z,7.70
2022-12-29T00:41:13.652Z,7.57
2022-12-29T00:44:10.777Z,7.66
2022-12-29T00:46:39.709Z,7.69
2022-12-29T00:49:28.228Z,7.75
2022-12-29T00:51:57.236Z,7.76
2022-12-29T00:54:25.616Z,7.66
2022-12-29T00:56:54.812Z,7.78
2022-12-29T00:59:25.159Z,7.67
2022-12-29T01:01:54.707Z,7.65
2022-12-29T01:04:26.442Z,7.75
2022-12-29T01:06:54.885Z,7.75
2022-12-29T01:09:40.900Z,7.77
2022-12-29T01:12:11.220Z,7.73
2022-12-29T01:14:40.018Z,7.88
2022-12-29T01:17:08.018Z,7.70
2022-12-29T01:19:41.307Z,7.72
2022-12-29T01:22:09.468Z,7.88
2022-12-29T01:24:37.345Z,7.82
2022-12-29T01:27:05.635Z,7.80
2022-12-29T01:29:33.397Z,7.92
2022-12-29T01:32:01.378Z,7.99
2022-12-29T01:34:30.151Z,8.11
2022-12-29T01:36:59.253Z,7.95
2022-12-29T01:39:27.525Z,8.11
2022-12-29T01:41:55.378Z,8.12
2022-12-29T01:44:52.353Z,8.02
2022-12-29T01:47:28.782Z,8.21
2022-12-29T01:49:59.108Z,8.40
2022-12-29T01:52:32.537Z,8.46
2022-12-29T01:55:02.014Z,8.55
2022-12-29T01:57:33.962Z,8.59
2022-12-29T02:00:05.343Z,8.58
2022-12-29T02:02:34.340Z,8.68
2022-12-29T02:05:07.956Z,8.70
2022-12-29T02:07:37.783Z,8.72
2022-12-29T02:10:06.899Z,8.77
2022-12-29T02:12:36.194Z,8.89
2022-12-29T02:15:06.303Z,9.02
2022-12-29T02:17:52.360Z,9.09
2022-12-29T02:20:50.796Z,9.29
2022-12-29T02:23:43.935Z,9.28
2022-12-29T02:26:45.037Z,9.36
2022-12-29T02:29:52.848Z,9.60
2022-12-29T02:32:32.300Z,9.73
2022-12-29T02:35:08.960Z,9.69
2022-12-29T02:37:45.887Z,10.00
2022-12-29T02:40:24.969Z,10.03
2022-12-29T02:43:01.350Z,10.08
2022-12-29T02:45:34.083Z,10.18
2022-12-29T02:48:12.000Z,10.36
2022-12-29T02:50:45.511Z,10.50
2022-12-29T02:53:16.818Z,10.54
2022-12-29T02:55:49.590Z,10.75
2022-12-29T02:58:20.194Z,10.64
2022-12-29T03:00:58.553Z,10.64
2022-12-29T03:03:43.009Z,10.60
2022-12-29T03:06:24.444Z,10.71
2022-12-29T03:08:59.777Z,10.86
2022-12-29T03:11:49.141Z,10.78
2022-12-29T03:14:43.230Z,10.84
2022-12-29T03:17:20.495Z,10.89
2022-12-29T03:19:55.036Z,11.03
2022-12-29T03:22:31.724Z,10.87
2022-12-29T03:25:03.833Z,10.94
2022-12-29T03:27:34.885Z,11.05
2022-12-29T03:30:07.074Z,11.18
2022-12-29T03:32:40.638Z,11.12
2022-12-29T03:35:14.583Z,11.11
2022-12-29T03:37:46.502Z,11.17
2022-12-29T03:40:14.529Z,11.18
2022-12-29T03:42:43.972Z,11.08
2022-12-29T03:45:13.395Z,11.18
2022-12-29T03:47:41.436Z,11.16
2022-12-29T03:50:11.187Z,11.25
2022-12-29T03:52:39.019Z,11.29
2022-12-29T03:55:08.106Z,11.15
2022-12-29T03:57:36.008Z,11.25
2022-12-29T04:00:04.901Z,11.39
2022-12-29T04:02:33.034Z,11.33
2022-12-29T04:05:00.922Z,11.38
2022-12-29T04:07:30.069Z,11.31
2022-12-29T04:09:58.146Z,11.31
2022-12-29T04:12:25.984Z,11.17
2022-12-29T04:14:54.078Z,11.16
2022-12-29T04:17:21.941Z,11.03
2022-12-29T04:19:50.058Z,11.04
2022-12-29T04:22:17.903Z,10.90
2022-12-29T04:24:47.599Z,11.01
2022-12-29T04:27:15.758Z,11.01
2022-12-29T04:29:43.741Z,10.99
2022-12-29T04:32:11.719Z,11.01
2022-12-29T04:34:39.912Z,11.12
2022-12-29T04:37:07.665Z,11.03
2022-12-29T04:39:35.434Z,11.12
2022-12-29T04:42:05.226Z,10.92
2022-12-29T04:44:33.042Z,11.08
2022-12-29T04:47:00.892Z,10.96
2022-12-29T04:49:29.077Z,11.19
2022-12-29T04:51:56.979Z,11.35
2022-12-29T04:54:24.787Z,11.23
2022-12-29T04:56:52.969Z,11.27
2022-12-29T04:59:22.243Z,11.20
2022-12-29T05:01:50.297Z,11.18
2022-12-29T05:04:18.221Z,11.23
2022-12-29T05:06:45.896Z,11.21
2022-12-29T05:09:13.800Z,11.16
2022-12-29T05:11:42.624Z,11.10
2022-12-29T05:14:10.323Z,10.70
2022-12-29T05:16:39.483Z,10.68
2022-12-29T05:19:07.855Z,10.82
2022-12-29T05:21:35.675Z,10.87
2022-12-29T05:24:03.574Z,10.79
2022-12-29T05:26:31.842Z,10.52
2022-12-29T05:29:00.841Z,10.08
2022-12-29T05:31:29.419Z,10.03
2022-12-29T05:33:59.063Z,9.70
2022-12-29T05:36:26.818Z,9.74
2022-12-29T05:38:54.866Z,9.69
2022-12-29T05:41:23.248Z,9.62
2022-12-29T05:43:51.201Z,9.68
2022-12-29T05:46:20.071Z,9.47
2022-12-29T05:48:48.467Z,9.36
2022-12-29T05:51:17.868Z,9.81
2022-12-29T05:53:46.203Z,9.45
2022-12-29T05:56:14.494Z,9.53
2022-12-29T05:58:42.369Z,9.44
2022-12-29T06:01:10.331Z,9.38
2022-12-29T06:03:41.742Z,9.17
2022-12-29T06:06:13.992Z,8.89
2022-12-29T06:08:43.691Z,8.84
2022-12-29T06:11:11.632Z,8.71
2022-12-29T06:13:39.630Z,8.77
2022-12-29T06:16:08.988Z,8.83
2022-12-29T06:18:37.024Z,8.79
2022-12-29T06:21:06.320Z,8.63
2022-12-29T06:23:34.709Z,8.40
2022-12-29T06:26:03.877Z,8.42
2022-12-29T06:28:31.742Z,8.42
2022-12-29T06:30:59.632Z,8.43
2022-12-29T06:33:27.568Z,8.68
2022-12-29T06:35:55.531Z,8.75
2022-12-29T06:38:23.981Z,8.77
2022-12-29T06:40:51.797Z,8.85
2022-12-29T06:43:20.994Z,8.93
2022-12-29T06:45:49.441Z,9.01
2022-12-29T06:48:17.644Z,8.98
2022-12-29T06:50:45.481Z,9.17
2022-12-29T06:53:13.807Z,9.16
2022-12-29T06:55:41.748Z,9.05
2022-12-29T06:58:09.656Z,9.23
2022-12-29T07:00:39.415Z,9.32
2022-12-29T07:03:07.363Z,9.12
2022-12-29T07:05:35.473Z,9.17
2022-12-29T07:08:03.832Z,9.25
2022-12-29T07:10:31.831Z,9.04
2022-12-29T07:13:00.481Z,9.15
2022-12-29T07:15:28.858Z,9.06
2022-12-29T07:17:58.340Z,9.09
2022-12-29T07:20:27.137Z,9.16
2022-12-29T07:22:55.804Z,9.16
2022-12-29T07:25:23.941Z,9.03
2022-12-29T07:27:51.969Z,8.94
2022-12-29T07:30:20.476Z,9.17
2022-12-29T07:32:48.522Z,9.18
2022-12-29T07:35:17.843Z,8.96
2022-12-29T07:37:46.312Z,9.33
2022-12-29T07:40:14.236Z,9.71
2022-12-29T07:42:42.190Z,9.40
2022-12-29T07:45:11.901Z,9.51
2022-12-29T07:47:40.382Z,9.28
2022-12-29T07:50:08.800Z,9.43
2022-12-29T07:52:38.041Z,9.19
2022-12-29T07:55:06.669Z,9.09
2022-12-29T07:57:34.529Z,8.78
2022-12-29T08:00:03.110Z,9.04
2022-12-29T08:02:30.989Z,8.98
2022-12-29T08:04:58.927Z,9.02
2022-12-29T08:07:26.920Z,9.11
2022-12-29T08:09:56.326Z,9.41
2022-12-29T08:12:24.240Z,9.80
2022-12-29T08:14:52.689Z,9.73
2022-12-29T08:17:20.642Z,9.76
2022-12-29T08:19:48.552Z,10.20
2022-12-29T08:22:17.153Z,9.96
2022-12-29T08:24:45.162Z,10.09
2022-12-29T08:27:20.438Z,9.89
2022-12-29T08:29:49.440Z,10.38
2022-12-29T08:32:17.653Z,10.56
2022-12-29T08:34:45.607Z,11.11
2022-12-29T08:37:13.966Z,11.18
2022-12-29T08:39:41.939Z,11.12
2022-12-29T08:42:09.870Z,11.47
2022-12-29T08:44:39.390Z,11.75
2022-12-29T08:47:07.274Z,12.11
2022-12-29T08:49:35.791Z,12.22
2022-12-29T08:52:03.740Z,12.11
2022-12-29T08:54:32.149Z,12.20
2022-12-29T08:57:00.586Z,12.12
2022-12-29T08:59:28.779Z,12.20
2022-12-29T09:01:58.197Z,12.04
2022-12-29T09:04:27.158Z,12.25
2022-12-29T09:06:55.456Z,12.41
2022-12-29T09:09:23.624Z,12.27
2022-12-29T09:11:51.865Z,12.30
2022-12-29T09:14:20.150Z,12.46
2022-12-29T09:17:05.703Z,12.61
2022-12-29T09:19:34.947Z,12.50
2022-12-29T09:22:03.923Z,12.58
2022-12-29T09:24:32.494Z,12.73
2022-12-29T09:27:00.651Z,12.84
2022-12-29T09:29:28.464Z,13.07
2022-12-29T09:31:57.027Z,12.86
2022-12-29T09:34:25.232Z,12.99
2022-12-29T09:36:54.764Z,12.99
2022-12-29T09:39:22.860Z,13.13
2022-12-29T09:42:01.289Z,12.99
2022-12-29T09:44:37.585Z,13.17
2022-12-29T09:47:06.239Z,12.94
2022-12-29T09:49:44.527Z,13.05
2022-12-29T09:52:17.846Z,13.19
2022-12-29T09:55:00.557Z,13.26
2022-12-29T09:57:38.175Z,13.39
2022-12-29T10:00:14.809Z,13.10
2022-12-29T10:02:44.916Z,13.35
2022-12-29T10:05:25.264Z,13.80
2022-12-29T10:08:04.561Z,13.62
2022-12-29T10:10:40.613Z,13.70
2022-12-29T10:13:27.194Z,13.82
2022-12-29T10:16:04.591Z,13.79
2022-12-29T10:18:52.677Z,14.02
2022-12-29T10:21:31.214Z,14.24
2022-12-29T10:24:04.961Z,14.26
2022-12-29T10:26:40.615Z,14.40
2022-12-29T10:29:16.498Z,14.43
2022-12-29T10:31:49.267Z,14.55
2022-12-29T10:34:24.226Z,14.67
2022-12-29T10:36:59.392Z,14.90
2022-12-29T10:39:35.048Z,15.11
2022-12-29T10:42:12.436Z,14.90
2022-12-29T10:44:40.976Z,14.86
2022-12-29T10:47:16.148Z,14.51
2022-12-29T10:49:47.041Z,14.59
2022-12-29T10:52:17.732Z,14.76
2022-12-29T10:54:53.273Z,14.89
2022-12-29T10:57:28.806Z,14.88
2022-12-29T10:59:56.765Z,15.10
2022-12-29T11:02:46.331Z,15.20
2022-12-29T11:05:24.911Z,15.04
2022-12-29T11:07:59.039Z,15.37
2022-12-29T11:10:39.933Z,15.12
2022-12-29T11:13:16.629Z,14.95
2022-12-29T11:15:46.829Z,14.97
2022-12-29T11:18:24.242Z,15.29
2022-12-29T11:20:53.913Z,15.09
2022-12-29T11:23:32.905Z,15.19
2022-12-29T11:26:17.212Z,15.12
2022-12-29T11:28:48.030Z,14.89
2022-12-29T11:31:19.450Z,15.05
2022-12-29T11:33:48.608Z,15.13
2022-12-29T11:36:21.235Z,15.34
2022-12-29T11:38:52.542Z,15.17
2022-12-29T11:41:25.851Z,15.01
2022-12-29T11:43:56.075Z,14.98
2022-12-29T11:46:28.584Z,15.20
2022-12-29T11:49:00.105Z,15.29
2022-12-29T11:51:30.335Z,15.27
2022-12-29T11:54:01.126Z,15.08
2022-12-29T11:56:41.231Z,14.42
2022-12-29T11:59:43.258Z,14.95
2022-12-29T12:02:38.818Z,14.91
2022-12-29T12:05:17.933Z,14.87
2022-12-29T12:07:49.282Z,14.78
2022-12-29T12:10:26.845Z,14.33
2022-12-29T12:13:04.009Z,14.02
2022-12-29T12:15:44.961Z,14.00
2022-12-29T12:18:23.512Z,14.14
2022-12-29T12:20:56.707Z,14.13
2022-12-29T12:23:40.735Z,14.11
2022-12-29T12:26:14.578Z,14.21
2022-12-29T12:28:53.151Z,14.45
2022-12-29T12:31:36.218Z,14.32
2022-12-29T12:34:13.568Z,14.49
2022-12-29T12:37:10.512Z,14.29
2022-12-29T12:39:49.958Z,14.38
2022-12-29T12:42:32.760Z,14.23
2022-12-29T12:45:17.226Z,14.25
2022-12-29T12:48:01.566Z,14.20
2022-12-29T12:50:41.609Z,13.93
2022-12-29T12:53:32.243Z,14.15
2022-12-29T12:56:18.767Z,14.15
2022-12-29T12:58:55.371Z,14.31
2022-12-29T13:01:38.713Z,14.41
2022-12-29T13:04:45.790Z,14.14
2022-12-29T13:07:24.472Z,14.46
2022-12-29T13:10:06.223Z,14.32
2022-12-29T13:12:41.731Z,14.18
2022-12-29T13:15:23.496Z,14.22
2022-12-29T13:18:01.421Z,14.27
2022-12-29T13:20:40.278Z,14.39
2022-12-29T13:23:16.123Z,14.18
2022-12-29T13:25:53.148Z,14.48
2022-12-29T13:28:28.314Z,14.25
2022-12-29T13:31:02.821Z,14.52
2022-12-29T13:33:43.551Z,14.34
2022-12-29T13:36:22.467Z,14.17
2022-12-29T13:38:54.241Z,14.22
2022-12-29T13:41:32.367Z,14.07
2022-12-29T13:44:03.759Z,14.22
2022-12-29T13:46:39.452Z,14.05
2022-12-29T13:49:15.036Z,14.00
2022-12-29T13:51:49.646Z,13.71
2022-12-29T13:54:29.812Z,13.78
2022-12-29T13:57:09.049Z,13.78
2022-12-29T13:59:45.956Z,13.69
2022-12-29T14:02:23.373Z,13.89
2022-12-29T14:05:01.502Z,13.76
2022-12-29T14:07:30.461Z,13.71
2022-12-29T14:09:59.599Z,13.62
2022-12-29T14:12:38.414Z,13.73
2022-12-29T14:15:22.594Z,13.64
2022-12-29T14:18:12.521Z,13.68
2022-12-29T14:20:51.996Z,13.78
2022-12-29T14:23:30.628Z,13.53
2022-12-29T14:26:11.515Z,13.49
2022-12-29T14:28:41.265Z,13.45
2022-12-29T14:31:42.417Z,13.47
2022-12-29T14:34:40.622Z,13.38
2022-12-29T14:37:26.747Z,13.38
2022-12-29T14:40:08.654Z,13.42
2022-12-29T14:42:36.916Z,13.43
2022-12-29T14:45:08.980Z,13.54
2022-12-29T14:47:42.207Z,13.50
2022-12-29T14:50:16.440Z,13.25
2022-12-29T14:52:50.168Z,13.35
2022-12-29T14:55:40.526Z,13.19
2022-12-29T14:58:16.294Z,13.15
2022-12-29T15:00:44.979Z,13.14
2022-12-29T15:03:21.879Z,13.05
2022-12-29T15:05:53.389Z,13.16
2022-12-29T15:08:23.820Z,13.05
2022-12-29T15:10:57.678Z,13.12
2022-12-29T15:13:34.240Z,13.23
2022-12-29T15:16:02.600Z,13.16
2022-12-29T15:18:33.400Z,13.12
2022-12-29T15:21:03.735Z,13.18
2022-12-29T15:23:33.834Z,13.10
2022-12-29T15:26:04.113Z,12.82
2022-12-29T15:28:40.191Z,12.76
2022-12-29T15:31:13.989Z,12.66
2022-12-29T15:33:45.350Z,12.54
2022-12-29T15:36:15.567Z,12.53
2022-12-29T15:38:43.478Z,12.64
2022-12-29T15:41:28.392Z,12.72
2022-12-29T15:44:06.917Z,12.74
2022-12-29T15:46:35.431Z,12.54
2022-12-29T15:49:07.886Z,12.43
2022-12-29T15:51:39.159Z,12.28
2022-12-29T15:54:08.253Z,12.26
2022-12-29T15:56:37.156Z,12.25
2022-12-29T15:59:05.967Z,12.14
2022-12-29T16:01:36.657Z,12.06
2022-12-29T16:04:09.398Z,12.12
2022-12-29T16:06:39.636Z,12.13
2022-12-29T16:09:09.270Z,12.39
2022-12-29T16:11:40.173Z,12.38
2022-12-29T16:14:12.280Z,12.42
2022-12-29T16:16:42.252Z,12.59
2022-12-29T16:19:16.339Z,12.55
2022-12-29T16:21:45.835Z,12.73
2022-12-29T16:24:18.304Z,12.76
2022-12-29T16:26:51.765Z,12.76
2022-12-29T16:29:25.004Z,12.65
2022-12-29T16:32:01.588Z,12.86
2022-12-29T16:34:33.820Z,12.82
2022-12-29T16:37:03.769Z,12.91
2022-12-29T16:39:40.442Z,12.82
2022-12-29T16:42:38.695Z,12.94
2022-12-29T16:45:49.328Z,12.67
2022-12-29T16:48:22.135Z,12.62
2022-12-29T16:50:51.998Z,12.39
2022-12-29T16:53:26.616Z,12.37
2022-12-29T16:55:56.656Z,12.31
2022-12-29T16:58:28.070Z,12.27
2022-12-29T17:00:58.108Z,12.21
2022-12-29T17:03:33.414Z,12.43
2022-12-29T17:06:02.946Z,12.35
2022-12-29T17:08:30.792Z,12.44
2022-12-29T17:11:16.684Z,12.45
2022-12-29T17:13:44.764Z,12.61
2022-12-29T17:16:14.052Z,12.56
2022-12-29T17:18:42.029Z,12.72
2022-12-29T17:21:11.483Z,12.45
2022-12-29T17:23:39.111Z,12.18
2022-12-29T17:26:11.707Z,11.28
2022-12-29T17:28:40.075Z,10.84
2022-12-29T17:31:09.468Z,10.67
2022-12-29T17:33:39.690Z,10.63
2022-12-29T17:36:08.558Z,10.79
2022-12-29T17:38:38.831Z,10.56
2022-12-29T17:41:13.805Z,10.59
2022-12-29T17:43:41.964Z,10.60
2022-12-29T17:46:10.048Z,10.44
2022-12-29T17:48:38.421Z,10.36
2022-12-29T17:51:07.078Z,10.64
2022-12-29T17:53:34.987Z,10.53
2022-12-29T17:56:04.479Z,10.53
2022-12-29T17:58:34.110Z,10.73
2022-12-29T18:01:03.852Z,10.57
2022-12-29T18:03:35.276Z,10.57
2022-12-29T18:06:06.739Z,10.67
2022-12-29T18:08:36.868Z,10.57
2022-12-29T18:11:11.038Z,10.29
2022-12-29T18:13:45.930Z,10.17
2022-12-29T18:16:15.603Z,9.93
2022-12-29T18:18:43.574Z,9.82
2022-12-29T18:21:18.652Z,9.83
2022-12-29T18:23:47.549Z,9.81
2022-12-29T18:26:25.624Z,9.85
2022-12-29T18:28:55.737Z,9.79
2022-12-29T18:31:26.886Z,9.67
2022-12-29T18:33:55.691Z,9.73
2022-12-29T18:36:24.245Z,9.65
2022-12-29T18:38:54.047Z,9.50
2022-12-29T18:41:25.734Z,9.43
2022-12-29T18:43:53.678Z,9.35
2022-12-29T18:46:23.515Z,9.39
2022-12-29T18:48:51.854Z,9.28
2022-12-29T18:51:22.469Z,9.20
2022-12-29T18:53:53.025Z,9.30
2022-12-29T18:56:22.465Z,9.25
2022-12-29T18:58:53.478Z,9.03
2022-12-29T19:01:23.780Z,9.18
2022-12-29T19:03:52.380Z,9.17
2022-12-29T19:06:22.180Z,9.13
2022-12-29T19:08:50.761Z,9.20
2022-12-29T19:11:19.246Z,9.23
2022-12-29T19:14:07.456Z,9.19
2022-12-29T19:16:35.816Z,9.12
2022-12-29T19:19:09.301Z,9.17
2022-12-29T19:21:39.437Z,9.11
2022-12-29T19:24:08.564Z,9.07
2022-12-29T19:26:39.293Z,9.04
2022-12-29T19:29:14.775Z,9.14
2022-12-29T19:31:43.285Z,9.24
2022-12-29T19:34:14.301Z,9.19
2022-12-29T19:36:42.636Z,9.14
2022-12-29T19:39:35.803Z,8.99
2022-12-29T19:42:05.593Z,8.95
2022-12-29T19:44:35.384Z,9.16
2022-12-29T19:47:04.349Z,9.14
2022-12-29T19:49:33.236Z,9.18
2022-12-29T19:52:01.846Z,9.29
2022-12-29T19:54:29.947Z,9.36
2022-12-29T19:56:58.320Z,9.42
2022-12-29T19:59:26.945Z,9.46
2022-12-29T20:01:57.111Z,9.51
2022-12-29T20:04:25.584Z,9.47
2022-12-29T20:06:54.815Z,9.59
2022-12-29T20:09:23.181Z,9.61
2022-12-29T20:11:51.862Z,9.60
2022-12-29T20:14:20.170Z,9.68
2022-12-29T20:17:10.328Z,9.70
2022-12-29T20:19:40.393Z,9.67
2022-12-29T20:22:10.109Z,9.61
2022-12-29T20:24:43.887Z,9.64
2022-12-29T20:27:17.064Z,9.49
2022-12-29T20:29:46.371Z,9.47
2022-12-29T20:32:16.887Z,9.46
2022-12-29T20:34:47.524Z,9.53
2022-12-29T20:37:17.376Z,9.59
2022-12-29T20:39:46.032Z,9.73
2022-12-29T20:42:14.726Z,9.63
2022-12-29T20:44:42.786Z,9.80
2022-12-29T20:47:11.367Z,9.70
2022-12-29T20:49:39.560Z,9.67
2022-12-29T20:52:09.525Z,9.74
2022-12-29T20:54:39.699Z,9.85
2022-12-29T20:57:08.620Z,9.88
2022-12-29T20:59:37.001Z,9.65
2022-12-29T21:02:05.317Z,9.71
2022-12-29T21:05:05.078Z,9.86
2022-12-29T21:07:23.134Z,9.81
2022-12-29T21:09:51.584Z,9.88
2022-12-29T21:12:20.021Z,9.99
2022-12-29T21:14:48.103Z,10.06
2022-12-29T21:17:16.651Z,10.17
2022-12-29T21:19:44.773Z,10.35
2022-12-29T21:22:13.514Z,10.32
2022-12-29T21:24:43.008Z,10.43
2022-12-29T21:27:11.386Z,10.37
2022-12-29T21:29:39.458Z,10.52
2022-12-29T21:32:08.117Z,10.58
2022-12-29T21:34:36.502Z,10.36
2022-12-29T21:37:04.739Z,10.60
2022-12-29T21:39:32.901Z,10.51
2022-12-29T21:42:02.729Z,10.46
2022-12-29T21:44:48.310Z,10.20
2022-12-29T21:47:16.798Z,10.25
2022-12-29T21:49:44.973Z,10.18
2022-12-29T21:52:13.407Z,10.25
2022-12-29T21:54:58.569Z,10.15
2022-12-29T21:57:45.414Z,10.23
2022-12-29T22:00:31.569Z,10.12
2022-12-29T22:03:23.083Z,10.22
2022-12-29T22:06:11.530Z,10.10
2022-12-29T22:08:57.936Z,10.14
2022-12-29T22:11:43.650Z,10.20
2022-12-29T22:14:13.080Z,10.10
2022-12-29T22:16:41.755Z,10.19
2022-12-29T22:19:11.172Z,10.26
2022-12-29T22:21:39.160Z,10.28
2022-12-29T22:24:08.805Z,10.19
2022-12-29T22:26:37.549Z,10.28
2022-12-29T22:29:05.793Z,10.29
2022-12-29T22:31:35.409Z,10.27
2022-12-29T22:34:05.793Z,10.35
2022-12-29T22:36:34.510Z,10.19
2022-12-29T22:39:02.574Z,10.07
2022-12-29T22:41:31.092Z,10.33
2022-12-29T22:43:59.071Z,10.26
2022-12-29T22:46:27.596Z,9.95
2022-12-29T22:48:57.659Z,10.02
2022-12-29T22:51:26.850Z,10.16
2022-12-29T22:53:54.974Z,10.12
2022-12-29T22:56:23.611Z,10.17
2022-12-29T22:58:52.338Z,10.24
2022-12-29T23:01:23.312Z,10.25
2022-12-29T23:03:51.727Z,10.13
2022-12-29T23:06:21.773Z,10.15
2022-12-29T23:08:50.037Z,9.85
2022-12-29T23:11:18.770Z,10.18
2022-12-29T23:13:46.987Z,10.00
2022-12-29T23:16:16.604Z,10.09
2022-12-29T23:18:45.256Z,9.91
2022-12-29T23:21:13.418Z,10.09
2022-12-29T23:23:56.231Z,10.13
2022-12-29T23:26:27.339Z,10.02
2022-12-29T23:29:00.195Z,9.99
2022-12-29T23:31:29.697Z,10.04
2022-12-29T23:33:58.195Z,10.10
2022-12-29T23:36:26.623Z,10.22
2022-12-29T23:38:57.007Z,10.32
2022-12-29T23:41:26.103Z,10.24
2022-12-29T23:43:54.375Z,10.28
2022-12-29T23:46:25.320Z,10.25
2022-12-29T23:48:53.687Z,10.42
2022-12-29T23:51:22.378Z,10.30
2022-12-29T23:53:50.599Z,10.43
2022-12-29T23:56:22.517Z,10.24
2022-12-29T23:58:51.399Z,10.29
